createdAt,value
2018-12-20T00:00:44.642Z,100307.17
2018-12-20T00:03:48.169Z,100300.14
2018-12-20T00:06:51.501Z,100294.47
2018-12-20T00:09:56.866Z,100294.83
2018-12-20T00:13:00.484Z,100294.83
2018-12-20T00:16:05.055Z,100295.80
2018-12-20T00:19:08.244Z,100299.20
2018-12-20T00:22:11.833Z,100300.14
2018-12-20T00:25:15.380Z,100298.45
2018-12-20T00:28:18.770Z,100302.80
2018-12-20T00:31:22.522Z,100297.48
2018-12-20T00:34:25.768Z,100294.00
2018-12-20T00:37:28.871Z,100298.45
2018-12-20T00:40:33.267Z,100297.13
2018-12-20T00:43:36.572Z,100290.49
2018-12-20T00:46:39.740Z,100296.16
2018-12-20T00:49:42.867Z,100293.14
2018-12-20T00:52:45.886Z,100300.25
2018-12-20T00:55:49.290Z,100304.13
2018-12-20T00:58:52.724Z,100305.45
2018-12-20T01:01:55.857Z,100305.09
2018-12-20T01:04:59.027Z,100309.94
2018-12-20T01:08:02.332Z,100305.45
2018-12-20T01:11:05.639Z,100302.44
2018-12-20T01:14:08.672Z,100305.45
2018-12-20T01:17:11.660Z,100301.11
2018-12-20T01:20:14.975Z,100307.75
2018-12-20T01:23:18.250Z,100312.09
2018-12-20T01:26:21.355Z,100312.95
2018-12-20T01:29:24.673Z,100315.14
2018-12-20T01:32:27.724Z,100313.31
2018-12-20T01:35:30.900Z,100312.48
2018-12-20T01:38:34.056Z,100315.50
2018-12-20T01:41:37.370Z,100317.80
2018-12-20T01:44:40.620Z,100317.80
2018-12-20T01:47:43.897Z,100314.64
2018-12-20T01:50:48.129Z,100315.14
2018-12-20T01:53:51.232Z,100314.17
2018-12-20T01:56:54.359Z,100320.81
2018-12-20T01:59:57.381Z,100318.16
2018-12-20T02:03:01.631Z,100319.48
2018-12-20T02:06:04.970Z,100312.84
2018-12-20T02:09:09.270Z,100312.38
2018-12-20T02:12:13.335Z,100315.86
2018-12-20T02:15:16.370Z,100306.56
2018-12-20T02:18:19.696Z,100309.22
2018-12-20T02:21:22.814Z,100310.94
2018-12-20T02:24:26.214Z,100307.53
2018-12-20T02:27:29.449Z,100310.55
2018-12-20T02:30:35.222Z,100303.91
2018-12-20T02:33:38.357Z,100309.72
2018-12-20T02:36:41.458Z,100298.13
2018-12-20T02:39:45.662Z,100303.44
2018-12-20T02:42:48.935Z,100304.77
2018-12-20T02:45:52.189Z,100303.80
2018-12-20T02:48:55.423Z,100307.31
2018-12-20T02:51:59.732Z,100301.14
2018-12-20T02:55:02.858Z,100288.36
2018-12-20T02:58:05.987Z,100290.05
2018-12-20T03:01:09.356Z,100283.77
2018-12-20T03:04:13.575Z,100281.73
2018-12-20T03:07:16.744Z,100282.09
2018-12-20T03:10:19.974Z,100278.10
2018-12-20T03:13:23.039Z,100286.42
2018-12-20T03:16:26.079Z,100279.43
2018-12-20T03:19:29.542Z,100279.79
2018-12-20T03:22:32.751Z,100276.77
2018-12-20T03:25:35.916Z,100277.59
2018-12-20T03:28:39.373Z,100278.45
2018-12-20T03:31:42.501Z,100281.11
2018-12-20T03:34:45.491Z,100274.01
2018-12-20T03:37:48.897Z,100275.80
2018-12-20T03:40:52.163Z,100281.01
2018-12-20T03:43:56.658Z,100275.80
2018-12-20T03:47:00.734Z,100281.11
2018-12-20T03:50:04.163Z,100280.14
2018-12-20T03:53:07.686Z,100280.53
2018-12-20T03:56:10.890Z,100275.69
2018-12-20T03:59:13.900Z,100279.20
2018-12-20T04:02:16.980Z,100277.88
2018-12-20T04:05:20.472Z,100275.69
2018-12-20T04:08:23.772Z,100271.71
2018-12-20T04:11:27.969Z,100264.21
2018-12-20T04:14:31.552Z,100260.62
2018-12-20T04:17:34.808Z,100264.96
2018-12-20T04:20:37.884Z,100261.95
2018-12-20T04:23:40.930Z,100263.74
2018-12-20T04:26:44.139Z,100259.77
2018-12-20T04:29:47.629Z,100254.92
2018-12-20T04:32:50.788Z,100258.32
2018-12-20T04:35:55.112Z,100255.66
2018-12-20T04:38:58.338Z,100254.34
2018-12-20T04:42:01.703Z,100251.91
2018-12-20T04:45:05.603Z,100246.38
2018-12-20T04:48:09.691Z,100245.52
2018-12-20T04:51:12.710Z,100245.05
2018-12-20T04:54:15.895Z,100245.05
2018-12-20T04:57:18.983Z,100246.38
2018-12-20T05:00:22.089Z,100240.95
2018-12-20T05:03:25.568Z,100237.44
2018-12-20T05:06:29.074Z,100236.11
2018-12-20T05:09:32.185Z,100234.78
2018-12-20T05:12:35.456Z,100231.19
2018-12-20T05:15:38.511Z,100233.84
2018-12-20T05:18:41.737Z,100231.19
2018-12-20T05:21:44.906Z,100232.02
2018-12-20T05:24:47.984Z,100234.78
2018-12-20T05:27:51.030Z,100228.53
2018-12-20T05:30:54.486Z,100224.05
2018-12-20T05:33:57.661Z,100225.88
2018-12-20T05:37:00.902Z,100228.89
2018-12-20T05:40:04.585Z,100240.95
2018-12-20T05:43:07.848Z,100242.16
2018-12-20T05:46:13.099Z,100256.41
2018-12-20T05:49:16.355Z,100264.73
2018-12-20T05:52:19.519Z,100262.91
2018-12-20T05:55:22.832Z,100267.03
2018-12-20T05:58:26.252Z,100263.77
2018-12-20T06:01:29.474Z,100271.37
2018-12-20T06:04:32.631Z,100267.75
2018-12-20T06:07:36.194Z,100284.16
2018-12-20T06:10:39.320Z,100281.89
2018-12-20T06:13:42.425Z,100270.05
2018-12-20T06:16:46.758Z,100266.42
2018-12-20T06:19:49.843Z,100261.11
2018-12-20T06:22:52.915Z,100264.63
2018-12-20T06:25:56.112Z,100258.45
2018-12-20T06:29:00.239Z,100256.55
2018-12-20T06:32:03.223Z,100253.50
2018-12-20T06:35:06.200Z,100252.28
2018-12-20T06:38:09.201Z,100255.69
2018-12-20T06:41:12.234Z,100257.98
2018-12-20T06:44:15.480Z,100262.80
2018-12-20T06:47:18.464Z,100260.53
2018-12-20T06:50:21.467Z,100261.00
2018-12-20T06:53:25.645Z,100253.39
2018-12-20T06:56:28.660Z,100259.20
2018-12-20T06:59:31.831Z,100260.03
2018-12-20T07:02:35.063Z,100263.55
2018-12-20T07:05:38.139Z,100262.58
2018-12-20T07:08:41.147Z,100259.09
2018-12-20T07:11:44.323Z,100263.91
2018-12-20T07:14:48.436Z,100258.23
2018-12-20T07:17:51.435Z,100261.64
2018-12-20T07:20:54.479Z,100262.58
2018-12-20T07:23:57.811Z,100263.91
2018-12-20T07:27:00.903Z,100268.28
2018-12-20T07:30:04.795Z,100271.88
2018-12-20T07:33:08.268Z,100270.55
2018-12-20T07:36:11.743Z,100271.88
2018-12-20T07:39:14.995Z,100272.73
2018-12-20T07:42:18.306Z,100270.32
2018-12-20T07:45:22.439Z,100264.30
2018-12-20T07:48:32.049Z,100273.95
2018-12-20T07:51:31.900Z,100271.29
2018-12-20T07:54:36.892Z,100268.63
2018-12-20T07:57:40.120Z,100268.02
2018-12-20T08:00:43.174Z,100266.84
2018-12-20T08:03:46.213Z,100267.66
2018-12-20T08:06:49.324Z,100268.99
2018-12-20T08:09:52.484Z,100272.62
2018-12-20T08:12:55.474Z,100270.32
2018-12-20T08:15:58.478Z,100276.61
2018-12-20T08:19:01.455Z,100276.38
2018-12-20T08:22:05.586Z,100277.31
2018-12-20T08:25:08.797Z,100276.96
2018-12-20T08:28:12.902Z,100282.27
2018-12-20T08:31:16.050Z,100288.80
2018-12-20T08:34:20.188Z,100282.62
2018-12-20T08:37:23.403Z,100284.34
2018-12-20T08:40:27.664Z,100281.69
2018-12-20T08:43:30.691Z,100279.86
2018-12-20T08:46:33.767Z,100278.06
2018-12-20T08:49:36.886Z,100275.77
2018-12-20T08:52:40.124Z,100282.80
2018-12-20T08:55:43.363Z,100280.50
2018-12-20T08:58:46.377Z,100286.17
2018-12-20T09:01:50.645Z,100284.84
2018-12-20T09:04:54.794Z,100288.25
2018-12-20T09:07:57.884Z,100289.58
2018-12-20T09:11:01.170Z,100289.35
2018-12-20T09:14:04.267Z,100288.13
2018-12-20T09:17:07.268Z,100293.34
2018-12-20T09:20:11.317Z,100291.17
2018-12-20T09:23:14.455Z,100288.87
2018-12-20T09:26:17.434Z,100288.28
2018-12-20T09:29:22.425Z,100283.61
2018-12-20T09:32:25.583Z,100283.46
2018-12-20T09:35:28.663Z,100291.83
2018-12-20T09:38:31.681Z,100278.89
2018-12-20T09:41:34.743Z,100281.69
2018-12-20T09:44:39.067Z,100279.02
2018-12-20T09:47:47.367Z,100276.72
2018-12-20T09:50:50.470Z,100274.92
2018-12-20T09:53:53.632Z,100275.55
2018-12-20T09:56:56.772Z,100269.27
2018-12-20T09:59:59.970Z,100274.39
2018-12-20T10:03:02.959Z,100268.19
2018-12-20T10:06:06.164Z,100267.13
2018-12-20T10:09:09.501Z,100260.87
2018-12-20T10:12:12.807Z,100270.53
2018-12-20T10:15:16.745Z,100266.43
2018-12-20T10:18:19.839Z,100259.67
2018-12-20T10:21:24.132Z,100253.73
2018-12-20T10:24:27.268Z,100254.23
2018-12-20T10:27:31.807Z,100245.17
2018-12-20T10:30:34.876Z,100243.84
2018-12-20T10:33:37.999Z,100236.84
2018-12-20T10:36:42.233Z,100233.56
2018-12-20T10:39:46.211Z,100229.58
2018-12-20T10:42:49.329Z,100223.91
2018-12-20T10:45:52.459Z,100228.37
2018-12-20T10:48:55.557Z,100225.59
2018-12-20T10:51:59.678Z,100220.27
2018-12-20T10:55:02.681Z,100217.03
2018-12-20T10:58:05.748Z,100209.64
2018-12-20T11:01:15.396Z,100206.98
2018-12-20T11:04:23.950Z,100209.64
2018-12-20T11:07:32.466Z,100201.55
2018-12-20T11:10:35.458Z,100197.80
2018-12-20T11:13:38.620Z,100196.58
2018-12-20T11:16:41.637Z,100197.91
2018-12-20T11:19:44.716Z,100194.42
2018-12-20T11:22:47.846Z,100197.08
2018-12-20T11:25:51.056Z,100191.38
2018-12-20T11:28:54.203Z,100184.38
2018-12-20T11:31:57.290Z,100190.05
2018-12-20T11:35:00.408Z,100187.90
2018-12-20T11:38:03.571Z,100181.84
2018-12-20T11:41:06.663Z,100175.81
2018-12-20T11:44:09.676Z,100183.91
2018-12-20T11:47:18.213Z,100180.39
2018-12-20T11:50:21.522Z,100179.80
2018-12-20T11:53:25.031Z,100185.01
2018-12-20T11:56:28.191Z,100178.72
2018-12-20T11:59:31.347Z,100190.92
2018-12-20T12:02:34.510Z,100180.78
2018-12-20T12:05:38.587Z,100178.12
2018-12-20T12:08:41.571Z,100177.51
2018-12-20T12:11:44.628Z,100175.59
2018-12-20T12:14:48.942Z,100169.88
2018-12-20T12:17:54.412Z,100170.98
2018-12-20T12:20:56.986Z,100164.33
2018-12-20T12:24:00.262Z,100168.70
2018-12-20T12:27:03.392Z,100170.98
2018-12-20T12:30:08.172Z,100171.36
2018-12-20T12:33:11.326Z,100172.70
2018-12-20T12:36:16.431Z,100174.38
2018-12-20T12:39:19.555Z,100165.31
2018-12-20T12:42:22.532Z,100167.38
2018-12-20T12:45:26.675Z,100166.52
2018-12-20T12:48:30.778Z,100172.70
2018-12-20T12:51:34.957Z,100172.81
2018-12-20T12:54:38.052Z,100174.02
2018-12-20T12:57:41.185Z,100182.47
2018-12-20T13:00:44.356Z,100187.44
2018-12-20T13:03:47.443Z,100186.94
2018-12-20T13:06:50.669Z,100188.53
2018-12-20T13:09:53.942Z,100192.52
2018-12-20T13:12:56.920Z,100183.69
2018-12-20T13:16:00.202Z,100192.13
2018-12-20T13:19:03.455Z,100188.14
2018-12-20T13:22:06.621Z,100183.80
2018-12-20T13:25:09.799Z,100184.16
2018-12-20T13:28:12.812Z,100187.31
2018-12-20T13:31:15.918Z,100189.36
2018-12-20T13:34:19.131Z,100183.45
2018-12-20T13:37:22.324Z,100193.11
2018-12-20T13:40:25.367Z,100181.65
2018-12-20T13:46:42.635Z,100194.67
2018-12-20T13:49:45.872Z,100191.31
2018-12-20T13:52:49.076Z,100197.60
2018-12-20T13:55:52.394Z,100193.73
2018-12-20T13:59:03.258Z,100195.88
2018-12-20T14:02:01.690Z,100194.44
2018-12-20T14:05:05.294Z,100192.02
2018-12-20T14:08:08.380Z,100192.41
2018-12-20T14:11:12.463Z,100196.63
2018-12-20T14:14:15.696Z,100196.63
2018-12-20T14:17:19.681Z,100204.45
2018-12-20T14:20:22.747Z,100200.84
2018-12-20T14:23:26.015Z,100197.79
2018-12-20T14:26:29.299Z,100191.49
2018-12-20T14:29:33.587Z,100192.07
2018-12-20T14:32:36.819Z,100202.19
2018-12-20T14:35:39.840Z,100193.37
2018-12-20T14:38:42.950Z,100195.30
2018-12-20T14:41:46.195Z,100198.18
2018-12-20T14:44:49.318Z,100198.64
2018-12-20T14:47:52.408Z,100197.18
2018-12-20T14:50:55.499Z,100213.34
2018-12-20T14:53:58.692Z,100212.63
2018-12-20T14:57:02.330Z,100207.20
2018-12-20T15:00:08.609Z,100205.47
2018-12-20T15:03:13.723Z,100204.37
2018-12-20T15:06:16.716Z,100207.28
2018-12-20T15:09:19.808Z,100206.31
2018-12-20T15:12:23.047Z,100210.19
2018-12-20T15:15:26.174Z,100208.22
2018-12-20T15:18:29.727Z,100208.09
2018-12-20T15:21:32.968Z,100210.75
2018-12-20T15:24:36.857Z,100206.05
2018-12-20T15:27:42.037Z,100212.16
2018-12-20T15:30:45.958Z,100216.72
2018-12-20T15:33:51.584Z,100220.10
2018-12-20T15:36:56.670Z,100216.78
2018-12-20T15:39:59.736Z,100223.06
2018-12-20T15:43:02.923Z,100221.73
2018-12-20T15:46:05.935Z,100228.01
2018-12-20T15:49:09.142Z,100226.05
2018-12-20T15:52:12.467Z,100231.46
2018-12-20T15:55:16.721Z,100236.52
2018-12-20T15:58:20.740Z,100230.75
2018-12-20T16:01:24.858Z,100236.28
2018-12-20T16:04:29.652Z,100240.25
2018-12-20T16:07:34.095Z,100240.00
2018-12-20T16:10:37.580Z,100241.80
2018-12-20T16:13:43.783Z,100240.83
2018-12-20T16:16:46.988Z,100240.12
2018-12-20T16:19:50.143Z,100243.70
2018-12-20T16:22:53.579Z,100245.78
2018-12-20T16:25:57.790Z,100253.00
2018-12-20T16:29:00.946Z,100246.00
2018-12-20T16:32:04.115Z,100253.14
2018-12-20T16:35:08.111Z,100252.06
2018-12-20T16:38:11.335Z,100251.02
2018-12-20T16:41:14.615Z,100249.33
2018-12-20T16:44:17.897Z,100252.81
2018-12-20T16:47:21.170Z,100252.70
2018-12-20T16:50:25.522Z,100258.27
2018-12-20T16:53:28.782Z,100254.64
2018-12-20T16:56:31.792Z,100258.98
2018-12-20T16:59:34.868Z,100251.98
2018-12-20T17:02:38.009Z,100262.67
2018-12-20T17:05:41.058Z,100251.67
2018-12-20T17:08:48.050Z,100253.25
2018-12-20T17:11:49.368Z,100249.48
2018-12-20T17:14:52.569Z,100257.05
2018-12-20T17:17:55.664Z,100255.12
2018-12-20T17:20:59.919Z,100254.26
2018-12-20T17:24:03.087Z,100258.23
2018-12-20T17:27:10.203Z,100263.19
2018-12-20T17:30:13.535Z,100254.26
2018-12-20T17:33:16.756Z,100252.56
2018-12-20T17:36:20.051Z,100257.37
2018-12-20T17:39:23.024Z,100256.27
2018-12-20T17:42:26.120Z,100256.27
2018-12-20T17:45:29.179Z,100254.94
2018-12-20T17:48:32.311Z,100249.73
2018-12-20T17:51:35.561Z,100256.48
2018-12-20T17:54:38.795Z,100257.80
2018-12-20T17:57:42.900Z,100253.68
2018-12-20T18:00:45.984Z,100258.98
2018-12-20T18:03:49.083Z,100256.55
2018-12-20T18:06:52.098Z,100260.67
2018-12-20T18:09:55.201Z,100252.35
2018-12-20T18:12:58.600Z,100261.64
2018-12-20T18:16:01.993Z,100267.37
2018-12-20T18:19:05.130Z,100267.37
2018-12-20T18:22:08.855Z,100268.95
2018-12-20T18:25:14.919Z,100268.84
2018-12-20T18:28:22.975Z,100275.01
2018-12-20T18:31:29.323Z,100274.36
2018-12-20T18:34:35.714Z,100265.69
2018-12-20T18:37:42.191Z,100267.01
2018-12-20T18:40:48.379Z,100272.31
2018-12-20T18:43:54.680Z,100274.58
2018-12-20T18:46:59.395Z,100275.54
2018-12-20T18:50:02.431Z,100276.97
2018-12-20T18:53:05.635Z,100284.46
2018-12-20T18:56:08.902Z,100276.25
2018-12-20T18:59:11.889Z,100280.59
2018-12-20T19:02:15.087Z,100279.27
2018-12-20T19:05:18.279Z,100281.05
2018-12-20T19:08:21.387Z,100277.94
2018-12-20T19:11:24.459Z,100279.47
2018-12-20T19:14:27.607Z,100283.34
2018-12-20T19:17:30.756Z,100275.96
2018-12-20T19:20:34.917Z,100278.25
2018-12-20T19:23:37.966Z,100279.22
2018-12-20T19:26:41.145Z,100285.85
2018-12-20T19:29:44.459Z,100290.19
2018-12-20T19:32:47.815Z,100290.77
2018-12-20T19:35:51.121Z,100291.16
2018-12-20T19:38:56.191Z,100279.58
2018-12-20T19:42:09.163Z,100289.44
2018-12-20T19:45:15.404Z,100281.58
2018-12-20T19:48:21.494Z,100282.45
2018-12-20T19:51:28.155Z,100278.93
2018-12-20T19:54:34.541Z,100287.75
2018-12-20T19:57:41.315Z,100285.20
2018-12-20T20:00:47.687Z,100291.73
2018-12-20T20:03:54.183Z,100287.02
2018-12-20T20:07:00.186Z,100284.37
2018-12-20T20:10:06.710Z,100280.97
2018-12-20T20:13:19.247Z,100279.28
2018-12-20T20:16:21.434Z,100283.98
2018-12-20T20:19:27.891Z,100289.03
2018-12-20T20:22:34.314Z,100292.33
2018-12-20T20:25:40.688Z,100292.90
2018-12-20T20:28:46.891Z,100294.23
2018-12-20T20:31:50.203Z,100291.58
2018-12-20T20:34:53.352Z,100294.91
2018-12-20T20:37:56.465Z,100290.27
2018-12-20T20:40:59.531Z,100293.18
2018-12-20T20:44:02.623Z,100290.45
2018-12-20T20:47:06.667Z,100286.48
2018-12-20T20:50:10.759Z,100288.67
2018-12-20T20:53:13.855Z,100278.52
2018-12-20T20:56:16.950Z,100281.17
2018-12-20T20:59:21.183Z,100280.21
2018-12-20T21:02:24.217Z,100274.16
2018-12-20T21:05:27.343Z,100278.06
2018-12-20T21:08:30.343Z,100274.16
2018-12-20T21:11:33.524Z,100274.16
2018-12-20T21:14:36.515Z,100266.77
2018-12-20T21:17:39.617Z,100273.76
2018-12-20T21:20:42.703Z,100270.38
2018-12-20T21:23:45.783Z,100272.67
2018-12-20T21:26:48.885Z,100280.63
2018-12-20T21:29:51.987Z,100281.45
2018-12-20T21:32:55.192Z,100286.30
2018-12-20T21:35:58.172Z,100285.18
2018-12-20T21:39:01.371Z,100289.52
2018-12-20T21:42:04.361Z,100289.16
2018-12-20T21:45:08.740Z,100285.08
2018-12-20T21:48:11.967Z,100288.19
2018-12-20T21:51:15.055Z,100289.91
2018-12-20T21:54:18.252Z,100292.27
2018-12-20T21:57:21.673Z,100291.45
2018-12-20T22:00:28.623Z,100288.80
2018-12-20T22:03:31.722Z,100284.81
2018-12-20T22:06:34.792Z,100286.61
2018-12-20T22:09:37.895Z,100280.30
2018-12-20T22:12:41.008Z,100285.28
2018-12-20T22:15:44.176Z,100286.72
2018-12-20T22:18:47.262Z,100283.30
2018-12-20T22:21:50.227Z,100284.97
2018-12-20T22:24:53.605Z,100280.60
2018-12-20T22:27:56.867Z,100286.86
2018-12-20T22:31:00.147Z,100287.33
2018-12-20T22:34:03.255Z,100290.69
2018-12-20T22:37:06.611Z,100287.87
2018-12-20T22:40:09.855Z,100285.13
2018-12-20T22:43:13.136Z,100290.12
2018-12-20T22:46:16.583Z,100284.47
2018-12-20T22:49:20.074Z,100286.39
2018-12-20T22:52:23.293Z,100289.14
2018-12-20T22:55:26.647Z,100286.39
2018-12-20T22:58:29.762Z,100286.20
2018-12-20T23:01:33.335Z,100284.15
2018-12-20T23:04:36.613Z,100282.56
2018-12-20T23:07:39.998Z,100283.48
2018-12-20T23:10:43.353Z,100286.64
2018-12-20T23:13:46.530Z,100285.41
2018-12-20T23:16:53.693Z,100275.28
2018-12-20T23:19:55.095Z,100277.77
2018-12-20T23:22:58.213Z,100268.13
2018-12-20T23:26:01.346Z,100267.73
2018-12-20T23:29:04.772Z,100257.73
2018-12-20T23:32:08.061Z,100264.20
2018-12-20T23:35:11.167Z,100255.50
2018-12-20T23:38:14.397Z,100255.50
2018-12-20T23:41:17.571Z,100255.86
2018-12-20T23:44:20.713Z,100255.13
2018-12-20T23:47:23.890Z,100261.75
2018-12-20T23:50:28.021Z,100253.41
2018-12-20T23:53:32.207Z,100258.81
2018-12-20T23:56:35.323Z,100253.22
2018-12-20T23:59:38.698Z,100251.89
